createdAt,value
2022-12-04T00:00:27.860Z,-0.47
2022-12-04T00:03:15.024Z,-0.43
2022-12-04T00:05:41.829Z,-0.42
2022-12-04T00:08:08.948Z,-0.40
2022-12-04T00:10:35.757Z,-0.38
2022-12-04T00:13:02.775Z,-0.36
2022-12-04T00:15:29.601Z,-0.35
2022-12-04T00:17:56.732Z,-0.36
2022-12-04T00:20:23.522Z,-0.34
2022-12-04T00:22:50.617Z,-0.35
2022-12-04T00:25:17.722Z,-0.35
2022-12-04T00:27:44.823Z,-0.36
2022-12-04T00:30:12.098Z,-0.34
2022-12-04T00:32:39.146Z,-0.36
2022-12-04T00:35:06.414Z,-0.34
2022-12-04T00:37:33.716Z,-0.33
2022-12-04T00:40:00.597Z,-0.36
2022-12-04T00:42:27.890Z,-0.39
2022-12-04T00:44:54.739Z,-0.42
2022-12-04T00:47:21.888Z,-0.44
2022-12-04T00:49:48.744Z,-0.44
2022-12-04T00:52:15.788Z,-0.42
2022-12-04T00:54:42.557Z,-0.37
2022-12-04T00:57:09.657Z,-0.45
2022-12-04T00:59:37.928Z,-0.39
2022-12-04T01:02:05.053Z,-0.39
2022-12-04T01:04:31.956Z,-0.37
2022-12-04T01:07:04.639Z,-0.36
2022-12-04T01:09:32.784Z,-0.38
2022-12-04T01:11:59.861Z,-0.36
2022-12-04T01:14:26.727Z,-0.38
2022-12-04T01:16:54.075Z,-0.38
2022-12-04T01:19:21.021Z,-0.40
2022-12-04T01:21:48.207Z,-0.38
2022-12-04T01:24:15.166Z,-0.43
2022-12-04T01:26:42.283Z,-0.45
2022-12-04T01:29:09.055Z,-0.49
2022-12-04T01:31:36.252Z,-0.48
2022-12-04T01:34:03.086Z,-0.49
2022-12-04T01:36:30.174Z,-0.47
2022-12-04T01:38:57.363Z,-0.45
2022-12-04T01:41:32.958Z,-0.46
2022-12-04T01:44:20.039Z,-0.45
2022-12-04T01:46:54.696Z,-0.39
2022-12-04T01:49:36.408Z,-0.43
2022-12-04T01:52:17.708Z,-0.43
2022-12-04T01:54:49.897Z,-0.40
2022-12-04T01:57:22.137Z,-0.42
2022-12-04T01:59:59.159Z,-0.37
2022-12-04T02:02:36.271Z,-0.38
2022-12-04T02:05:05.910Z,-0.40
2022-12-04T02:07:34.204Z,-0.42
2022-12-04T02:10:06.381Z,-0.46
2022-12-04T02:12:42.622Z,-0.49
2022-12-04T02:15:21.778Z,-0.49
2022-12-04T02:17:53.845Z,-0.53
2022-12-04T02:20:42.498Z,-0.57
2022-12-04T02:23:12.197Z,-0.58
2022-12-04T02:25:51.996Z,-0.55
2022-12-04T02:28:34.554Z,-0.59
2022-12-04T02:31:03.797Z,-0.58
2022-12-04T02:33:52.507Z,-0.56
2022-12-04T02:36:26.740Z,-0.55
2022-12-04T02:38:58.935Z,-0.50
2022-12-04T02:41:35.151Z,-0.51
2022-12-04T02:44:10.904Z,-0.49
2022-12-04T02:46:42.264Z,-0.53
2022-12-04T02:49:22.581Z,-0.52
2022-12-04T02:51:51.595Z,-0.50
2022-12-04T02:54:25.570Z,-0.53
2022-12-04T02:56:53.868Z,-0.54
2022-12-04T02:59:31.023Z,-0.52
2022-12-04T03:02:03.279Z,-0.49
2022-12-04T03:04:31.162Z,-0.49
2022-12-04T03:07:06.616Z,-0.47
2022-12-04T03:09:41.048Z,-0.49
2022-12-04T03:12:21.873Z,-0.48
2022-12-04T03:14:58.296Z,-0.47
2022-12-04T03:17:42.952Z,-0.50
2022-12-04T03:20:13.212Z,-0.49
2022-12-04T03:22:44.641Z,-0.46
2022-12-04T03:25:12.044Z,-0.49
2022-12-04T03:27:51.997Z,-0.46
2022-12-04T03:30:22.198Z,-0.45
2022-12-04T03:33:20.698Z,-0.51
2022-12-04T03:35:54.107Z,-0.53
2022-12-04T03:38:23.553Z,-0.53
2022-12-04T03:41:29.115Z,-0.58
2022-12-04T03:44:07.781Z,-0.56
2022-12-04T03:46:55.148Z,-0.56
2022-12-04T03:49:54.435Z,-0.53
2022-12-04T03:52:39.759Z,-0.52
2022-12-04T03:55:41.713Z,-0.55
2022-12-04T03:58:15.944Z,-0.52
2022-12-04T04:00:44.406Z,-0.50
2022-12-04T04:03:18.519Z,-0.50
2022-12-04T04:05:49.032Z,-0.50
2022-12-04T04:08:29.563Z,-0.51
2022-12-04T04:11:11.988Z,-0.52
2022-12-04T04:14:05.106Z,-0.53
2022-12-04T04:16:55.140Z,-0.52
2022-12-04T04:19:43.706Z,-0.53
2022-12-04T04:22:30.223Z,-0.51
2022-12-04T04:25:04.277Z,-0.52
2022-12-04T04:27:31.160Z,-0.49
2022-12-04T04:29:58.909Z,-0.52
2022-12-04T04:32:52.636Z,-0.49
2022-12-04T04:35:22.123Z,-0.46
2022-12-04T04:37:57.932Z,-0.45
2022-12-04T04:40:54.569Z,-0.44
2022-12-04T04:43:28.352Z,-0.42
2022-12-04T04:46:02.621Z,-0.46
2022-12-04T04:48:34.865Z,-0.45
2022-12-04T04:51:04.161Z,-0.46
2022-12-04T04:53:36.757Z,-0.46
2022-12-04T04:56:06.548Z,-0.49
2022-12-04T04:58:33.864Z,-0.47
2022-12-04T05:01:08.683Z,-0.47
2022-12-04T05:03:35.577Z,-0.45
2022-12-04T05:06:02.848Z,-0.54
2022-12-04T05:08:29.769Z,-0.55
2022-12-04T05:10:56.823Z,-0.57
2022-12-04T05:13:23.852Z,-0.54
2022-12-04T05:16:05.972Z,-0.55
2022-12-04T05:18:34.136Z,-0.54
2022-12-04T05:21:16.547Z,-0.56
2022-12-04T05:23:43.600Z,-0.59
2022-12-04T05:26:11.917Z,-0.59
2022-12-04T05:28:40.870Z,-0.56
2022-12-04T05:31:08.023Z,-0.52
2022-12-04T05:33:34.930Z,-0.58
2022-12-04T05:36:08.194Z,-0.56
2022-12-04T05:38:35.835Z,-0.59
2022-12-04T05:41:05.183Z,-0.58
2022-12-04T05:43:31.956Z,-0.56
2022-12-04T05:46:07.042Z,-0.58
2022-12-04T05:48:35.739Z,-0.54
2022-12-04T05:51:09.686Z,-0.55
2022-12-04T05:53:37.512Z,-0.56
2022-12-04T05:56:06.469Z,-0.54
2022-12-04T05:58:37.495Z,-0.56
2022-12-04T06:01:18.945Z,-0.56
2022-12-04T06:03:46.044Z,-0.62
2022-12-04T06:06:20.717Z,-0.62
2022-12-04T06:08:48.217Z,-0.57
2022-12-04T06:11:19.739Z,-0.60
2022-12-04T06:13:47.356Z,-0.59
2022-12-04T06:16:16.802Z,-0.60
2022-12-04T06:18:43.559Z,-0.63
2022-12-04T06:21:11.265Z,-0.65
2022-12-04T06:23:38.199Z,-0.63
2022-12-04T06:26:08.339Z,-0.64
2022-12-04T06:28:36.311Z,-0.63
2022-12-04T06:31:06.345Z,-0.62
2022-12-04T06:33:34.295Z,-0.65
2022-12-04T06:36:03.270Z,-0.64
2022-12-04T06:38:30.531Z,-0.64
2022-12-04T06:40:57.804Z,-0.61
2022-12-04T06:43:24.772Z,-0.63
2022-12-04T06:46:08.033Z,-0.62
2022-12-04T06:48:35.004Z,-0.57
2022-12-04T06:51:05.304Z,-0.57
2022-12-04T06:53:33.112Z,-0.55
2022-12-04T06:56:03.593Z,-0.54
2022-12-04T06:58:31.560Z,-0.57
2022-12-04T07:00:59.120Z,-0.54
2022-12-04T07:03:26.394Z,-0.54
2022-12-04T07:05:53.458Z,-0.53
2022-12-04T07:08:20.339Z,-0.50
2022-12-04T07:10:47.520Z,-0.49
2022-12-04T07:13:14.774Z,-0.46
2022-12-04T07:15:41.884Z,-0.47
2022-12-04T07:18:08.714Z,-0.52
2022-12-04T07:20:39.257Z,-0.52
2022-12-04T07:23:07.506Z,-0.52
2022-12-04T07:25:39.876Z,-0.47
2022-12-04T07:28:06.772Z,-0.43
2022-12-04T07:30:33.858Z,-0.44
2022-12-04T07:33:00.611Z,-0.48
2022-12-04T07:35:27.735Z,-0.49
2022-12-04T07:37:54.546Z,-0.50
2022-12-04T07:40:21.651Z,-0.49
2022-12-04T07:42:48.489Z,-0.47
2022-12-04T07:45:15.702Z,-0.44
2022-12-04T07:47:42.701Z,-0.45
2022-12-04T07:50:09.929Z,-0.47
2022-12-04T07:52:38.145Z,-0.46
2022-12-04T07:55:06.680Z,-0.47
2022-12-04T07:57:33.892Z,-0.44
2022-12-04T08:00:00.972Z,-0.47
2022-12-04T08:02:27.761Z,-0.47
2022-12-04T08:04:55.021Z,-0.43
2022-12-04T08:07:21.905Z,-0.38
2022-12-04T08:09:48.986Z,-0.35
2022-12-04T08:12:15.816Z,-0.34
2022-12-04T08:14:42.932Z,-0.32
2022-12-04T08:17:09.773Z,-0.32
2022-12-04T08:19:36.936Z,-0.30
2022-12-04T08:22:03.749Z,-0.27
2022-12-04T08:24:30.781Z,-0.25
2022-12-04T08:26:57.921Z,-0.30
2022-12-04T08:29:25.073Z,-0.30
2022-12-04T08:31:52.141Z,-0.32
2022-12-04T08:34:19.332Z,-0.27
2022-12-04T08:36:46.203Z,-0.25
2022-12-04T08:39:13.428Z,-0.32
2022-12-04T08:41:40.322Z,-0.28
2022-12-04T08:44:07.475Z,-0.27
2022-12-04T08:46:34.365Z,-0.18
2022-12-04T08:49:03.511Z,-0.18
2022-12-04T08:51:32.323Z,-0.11
2022-12-04T08:54:00.416Z,-0.15
2022-12-04T08:56:28.876Z,-0.18
2022-12-04T08:58:57.001Z,-0.15
2022-12-04T09:01:25.733Z,-0.08
2022-12-04T09:03:53.099Z,-0.05
2022-12-04T09:06:20.616Z,0.06
2022-12-04T09:08:47.898Z,0.11
2022-12-04T09:11:17.512Z,0.11
2022-12-04T09:13:45.421Z,0.12
2022-12-04T09:16:16.581Z,0.05
2022-12-04T09:18:44.285Z,0.04
2022-12-04T09:21:13.256Z,-0.03
2022-12-04T09:23:41.799Z,-0.05
2022-12-04T09:26:20.614Z,-0.04
2022-12-04T09:28:47.955Z,-0.05
2022-12-04T09:31:15.156Z,-0.08
2022-12-04T09:33:42.509Z,-0.05
2022-12-04T09:36:15.931Z,0.02
2022-12-04T09:38:48.896Z,0.02
2022-12-04T09:41:37.060Z,0.03
2022-12-04T09:44:47.693Z,0.04
2022-12-04T09:47:29.439Z,0.08
2022-12-04T09:50:06.440Z,0.12
2022-12-04T09:53:14.010Z,0.11
2022-12-04T09:56:04.209Z,0.11
2022-12-04T09:58:41.203Z,0.10
2022-12-04T10:01:20.751Z,0.09
2022-12-04T10:03:47.874Z,0.07
2022-12-04T10:06:28.741Z,0.01
2022-12-04T10:09:07.041Z,0.05
2022-12-04T10:11:43.018Z,0.09
2022-12-04T10:14:51.239Z,0.12
2022-12-04T10:17:36.768Z,0.18
2022-12-04T10:20:21.661Z,0.24
2022-12-04T10:23:20.949Z,0.30
2022-12-04T10:25:50.513Z,0.33
2022-12-04T10:28:23.518Z,0.32
2022-12-04T10:30:51.897Z,0.32
2022-12-04T10:33:46.381Z,0.27
2022-12-04T10:36:17.585Z,0.28
2022-12-04T10:38:54.081Z,0.27
2022-12-04T10:41:35.161Z,0.31
2022-12-04T10:44:02.570Z,0.39
2022-12-04T10:46:33.045Z,0.41
2022-12-04T10:49:03.912Z,0.47
2022-12-04T10:51:40.819Z,0.38
2022-12-04T10:54:37.602Z,0.35
2022-12-04T10:57:06.719Z,0.33
2022-12-04T10:59:34.745Z,0.31
2022-12-04T11:02:13.772Z,0.40
2022-12-04T11:04:42.095Z,0.44
2022-12-04T11:07:20.762Z,0.43
2022-12-04T11:10:06.232Z,0.44
2022-12-04T11:12:33.570Z,0.42
2022-12-04T11:15:06.751Z,0.49
2022-12-04T11:17:33.660Z,0.57
2022-12-04T11:20:05.087Z,0.54
2022-12-04T11:22:32.453Z,0.54
2022-12-04T11:25:00.123Z,0.48
2022-12-04T11:27:36.120Z,0.53
2022-12-04T11:30:11.289Z,0.49
2022-12-04T11:32:38.756Z,0.49
2022-12-04T11:35:13.716Z,0.49
2022-12-04T11:37:45.091Z,0.53
2022-12-04T11:40:18.799Z,0.59
2022-12-04T11:42:59.658Z,0.57
2022-12-04T11:45:26.747Z,0.51
2022-12-04T11:48:00.212Z,0.45
2022-12-04T11:50:54.436Z,0.39
2022-12-04T11:53:35.771Z,0.46
2022-12-04T11:56:17.156Z,0.40
2022-12-04T11:59:02.480Z,0.38
2022-12-04T12:02:03.379Z,0.41
2022-12-04T12:04:51.952Z,0.34
2022-12-04T12:07:34.607Z,0.26
2022-12-04T12:10:13.529Z,0.27
2022-12-04T12:12:52.593Z,0.25
2022-12-04T12:15:37.634Z,0.27
2022-12-04T12:18:10.462Z,0.30
2022-12-04T12:20:51.525Z,0.33
2022-12-04T12:23:40.054Z,0.27
2022-12-04T12:26:13.137Z,0.25
2022-12-04T12:28:40.263Z,0.25
2022-12-04T12:31:25.846Z,0.27
2022-12-04T12:33:59.109Z,0.24
2022-12-04T12:36:34.021Z,0.27
2022-12-04T12:39:12.411Z,0.27
2022-12-04T12:42:08.127Z,0.26
2022-12-04T12:44:35.146Z,0.22
2022-12-04T12:47:08.846Z,0.19
2022-12-04T12:50:05.419Z,0.19
2022-12-04T12:52:45.165Z,0.18
2022-12-04T12:55:39.015Z,0.12
2022-12-04T12:58:10.641Z,0.10
2022-12-04T13:00:45.760Z,0.14
2022-12-04T13:03:28.140Z,0.10
2022-12-04T13:06:00.615Z,0.08
2022-12-04T13:08:39.394Z,0.08
2022-12-04T13:11:10.876Z,0.03
2022-12-04T13:13:49.179Z,-0.01
2022-12-04T13:16:40.772Z,-0.04
2022-12-04T13:19:19.902Z,-0.05
2022-12-04T13:21:50.909Z,-0.09
2022-12-04T13:24:29.693Z,-0.11
2022-12-04T13:26:56.759Z,-0.11
2022-12-04T13:29:42.176Z,-0.18
2022-12-04T13:32:51.941Z,-0.17
2022-12-04T13:35:18.721Z,-0.18
2022-12-04T13:37:57.890Z,-0.19
2022-12-04T13:40:39.915Z,-0.14
2022-12-04T13:43:17.596Z,-0.12
2022-12-04T13:45:50.923Z,-0.14
2022-12-04T13:48:33.759Z,-0.10
2022-12-04T13:51:08.134Z,-0.13
2022-12-04T13:53:37.898Z,-0.11
2022-12-04T13:56:09.445Z,-0.13
2022-12-04T13:58:38.376Z,-0.14
2022-12-04T14:01:21.545Z,-0.11
2022-12-04T14:03:59.488Z,-0.10
2022-12-04T14:06:33.053Z,-0.14
2022-12-04T14:09:04.380Z,-0.18
2022-12-04T14:11:45.001Z,-0.21
2022-12-04T14:14:30.775Z,-0.18
2022-12-04T14:16:59.706Z,-0.14
2022-12-04T14:19:41.009Z,-0.14
2022-12-04T14:22:26.197Z,-0.12
2022-12-04T14:24:53.601Z,-0.13
2022-12-04T14:27:33.864Z,-0.10
2022-12-04T14:30:02.525Z,-0.08
2022-12-04T14:32:33.693Z,-0.15
2022-12-04T14:35:01.925Z,-0.19
2022-12-04T14:37:36.196Z,-0.25
2022-12-04T14:40:07.424Z,-0.28
2022-12-04T14:42:38.154Z,-0.26
2022-12-04T14:45:19.468Z,-0.28
2022-12-04T14:47:58.908Z,-0.34
2022-12-04T14:50:42.747Z,-0.36
2022-12-04T14:53:21.186Z,-0.37
2022-12-04T14:56:03.439Z,-0.38
2022-12-04T14:58:37.058Z,-0.35
2022-12-04T15:01:19.976Z,-0.35
2022-12-04T15:03:52.690Z,-0.32
2022-12-04T15:06:30.986Z,-0.31
2022-12-04T15:09:19.419Z,-0.39
2022-12-04T15:12:08.364Z,-0.40
2022-12-04T15:14:46.932Z,-0.36
2022-12-04T15:17:16.291Z,-0.31
2022-12-04T15:19:43.055Z,-0.32
2022-12-04T15:22:21.063Z,-0.28
2022-12-04T15:24:47.939Z,-0.26
2022-12-04T15:27:17.338Z,-0.28
2022-12-04T15:29:48.463Z,-0.32
2022-12-04T15:32:19.824Z,-0.35
2022-12-04T15:34:51.800Z,-0.31
2022-12-04T15:37:37.080Z,-0.33
2022-12-04T15:40:08.280Z,-0.34
2022-12-04T15:42:35.319Z,-0.35
2022-12-04T15:45:07.893Z,-0.34
2022-12-04T15:47:41.056Z,-0.36
2022-12-04T15:50:13.752Z,-0.45
2022-12-04T15:53:01.057Z,-0.47
2022-12-04T15:55:31.727Z,-0.45
2022-12-04T15:58:22.584Z,-0.49
2022-12-04T16:00:56.287Z,-0.50
2022-12-04T16:03:25.569Z,-0.47
2022-12-04T16:06:02.237Z,-0.48
2022-12-04T16:08:32.288Z,-0.45
2022-12-04T16:11:06.176Z,-0.47
2022-12-04T16:13:36.389Z,-0.47
2022-12-04T16:16:17.914Z,-0.43
2022-12-04T16:18:45.844Z,-0.40
2022-12-04T16:21:18.088Z,-0.53
2022-12-04T16:23:45.786Z,-0.53
2022-12-04T16:26:18.260Z,-0.49
2022-12-04T16:28:45.686Z,-0.44
2022-12-04T16:31:13.940Z,-0.44
2022-12-04T16:33:41.123Z,-0.46
2022-12-04T16:36:11.014Z,-0.45
2022-12-04T16:38:38.195Z,-0.44
2022-12-04T16:41:05.828Z,-0.47
2022-12-04T16:43:33.108Z,-0.48
2022-12-04T16:46:01.512Z,-0.47
2022-12-04T16:48:29.728Z,-0.50
2022-12-04T16:50:56.581Z,-0.51
2022-12-04T16:53:23.620Z,-0.54
2022-12-04T16:55:51.986Z,-0.53
2022-12-04T16:58:20.400Z,-0.54
2022-12-04T17:00:56.302Z,-0.52
2022-12-04T17:03:28.828Z,-0.49
2022-12-04T17:05:56.010Z,-0.47
2022-12-04T17:08:23.937Z,-0.45
2022-12-04T17:10:51.257Z,-0.44
2022-12-04T17:13:22.285Z,-0.44
2022-12-04T17:15:49.534Z,-0.44
2022-12-04T17:18:21.124Z,-0.46
2022-12-04T17:20:48.923Z,-0.44
2022-12-04T17:23:16.202Z,-0.43
2022-12-04T17:25:42.983Z,-0.46
2022-12-04T17:28:10.182Z,-0.44
2022-12-04T17:30:36.995Z,-0.45
2022-12-04T17:33:05.194Z,-0.47
2022-12-04T17:35:32.192Z,-0.47
2022-12-04T17:38:05.602Z,-0.46
2022-12-04T17:40:33.637Z,-0.50
2022-12-04T17:43:00.725Z,-0.52
2022-12-04T17:45:28.541Z,-0.50
2022-12-04T17:47:55.877Z,-0.52
2022-12-04T17:50:22.721Z,-0.49
2022-12-04T17:52:49.929Z,-0.45
2022-12-04T17:55:16.724Z,-0.46
2022-12-04T17:57:43.804Z,-0.44
2022-12-04T18:00:11.192Z,-0.50
2022-12-04T18:02:38.373Z,-0.49
2022-12-04T18:05:05.440Z,-0.53
2022-12-04T18:07:32.681Z,-0.46
2022-12-04T18:09:59.906Z,-0.51
2022-12-04T18:12:27.319Z,-0.50
2022-12-04T18:14:54.175Z,-0.53
2022-12-04T18:17:21.848Z,-0.49
2022-12-04T18:19:48.671Z,-0.49
2022-12-04T18:22:15.832Z,-0.48
2022-12-04T18:24:42.764Z,-0.45
2022-12-04T18:27:09.924Z,-0.40
2022-12-04T18:29:37.054Z,-0.44
2022-12-04T18:32:05.463Z,-0.41
2022-12-04T18:34:32.673Z,-0.42
2022-12-04T18:36:59.771Z,-0.43
2022-12-04T18:39:26.988Z,-0.42
2022-12-04T18:41:57.120Z,-0.41
2022-12-04T18:44:24.712Z,-0.44
2022-12-04T18:46:51.917Z,-0.40
2022-12-04T18:49:18.720Z,-0.40
2022-12-04T18:51:50.119Z,-0.43
2022-12-04T18:54:22.501Z,-0.42
2022-12-04T18:56:50.839Z,-0.48
2022-12-04T18:59:20.721Z,-0.52
2022-12-04T19:01:50.315Z,-0.49
2022-12-04T19:04:18.765Z,-0.50
2022-12-04T19:06:48.146Z,-0.46
2022-12-04T19:09:17.553Z,-0.47
2022-12-04T19:11:45.526Z,-0.44
2022-12-04T19:14:22.297Z,-0.43
2022-12-04T19:16:51.278Z,-0.40
2022-12-04T19:19:18.436Z,-0.40
2022-12-04T19:21:45.696Z,-0.46
2022-12-04T19:24:13.200Z,-0.46
2022-12-04T19:26:40.969Z,-0.46
2022-12-04T19:29:08.639Z,-0.44
2022-12-04T19:31:37.255Z,-0.41
2022-12-04T19:34:06.290Z,-0.46
2022-12-04T19:36:34.952Z,-0.53
2022-12-04T19:39:03.659Z,-0.55
2022-12-04T19:41:31.450Z,-0.56
2022-12-04T19:44:00.057Z,-0.55
2022-12-04T19:46:30.444Z,-0.57
2022-12-04T19:49:01.770Z,-0.55
2022-12-04T19:51:32.136Z,-0.55
2022-12-04T19:53:59.819Z,-0.52
2022-12-04T19:56:28.280Z,-0.52
2022-12-04T19:58:57.832Z,-0.52
2022-12-04T20:01:30.532Z,-0.53
2022-12-04T20:03:59.053Z,-0.55
2022-12-04T20:06:28.261Z,-0.55
2022-12-04T20:09:00.148Z,-0.59
2022-12-04T20:11:28.873Z,-0.63
2022-12-04T20:13:57.183Z,-0.65
2022-12-04T20:16:26.369Z,-0.62
2022-12-04T20:18:53.701Z,-0.63
2022-12-04T20:21:26.304Z,-0.63
2022-12-04T20:23:54.376Z,-0.67
2022-12-04T20:26:24.245Z,-0.66
2022-12-04T20:28:52.005Z,-0.65
2022-12-04T20:31:23.256Z,-0.59
2022-12-04T20:33:53.105Z,-0.61
2022-12-04T20:36:22.265Z,-0.62
2022-12-04T20:38:51.975Z,-0.59
2022-12-04T20:41:20.312Z,-0.58
2022-12-04T20:43:47.956Z,-0.55
2022-12-04T20:46:23.772Z,-0.58
2022-12-04T20:48:51.996Z,-0.57
2022-12-04T20:51:24.992Z,-0.59
2022-12-04T20:53:53.136Z,-0.64
2022-12-04T20:56:25.915Z,-0.63
2022-12-04T20:58:54.308Z,-0.60
2022-12-04T21:01:21.529Z,-0.70
2022-12-04T21:03:48.443Z,-0.76
2022-12-04T21:06:20.093Z,-0.77
2022-12-04T21:08:53.449Z,-0.73
2022-12-04T21:11:21.664Z,-0.73
2022-12-04T21:14:07.221Z,-0.73
2022-12-04T21:16:34.850Z,-0.70
2022-12-04T21:19:06.252Z,-0.70
2022-12-04T21:21:35.903Z,-0.70
2022-12-04T21:24:03.891Z,-0.70
2022-12-04T21:26:31.497Z,-0.70
2022-12-04T21:28:58.602Z,-0.64
2022-12-04T21:31:28.904Z,-0.61
2022-12-04T21:33:56.866Z,-0.63
2022-12-04T21:36:25.355Z,-0.67
2022-12-04T21:38:52.760Z,-0.67
2022-12-04T21:41:38.889Z,-0.63
2022-12-04T21:44:10.521Z,-0.65
2022-12-04T21:46:38.076Z,-0.61
2022-12-04T21:49:05.097Z,-0.62
2022-12-04T21:51:56.177Z,-0.63
2022-12-04T21:54:19.145Z,-0.64
2022-12-04T21:56:46.486Z,-0.65
2022-12-04T21:59:13.256Z,-0.68
2022-12-04T22:01:41.294Z,-0.70
2022-12-04T22:04:08.089Z,-0.70
2022-12-04T22:06:36.422Z,-0.67
2022-12-04T22:09:06.787Z,-0.69
2022-12-04T22:11:34.779Z,-0.69
2022-12-04T22:14:01.587Z,-0.64
2022-12-04T22:16:30.892Z,-0.67
2022-12-04T22:18:59.263Z,-0.66
2022-12-04T22:21:27.662Z,-0.68
2022-12-04T22:23:57.749Z,-0.69
2022-12-04T22:26:26.220Z,-0.70
2022-12-04T22:28:53.321Z,-0.71
2022-12-04T22:31:22.579Z,-0.72
2022-12-04T22:33:51.150Z,-0.72
2022-12-04T22:36:21.065Z,-0.66
2022-12-04T22:39:08.127Z,-0.69
2022-12-04T22:41:35.538Z,-0.69
2022-12-04T22:44:02.312Z,-0.69
2022-12-04T22:46:29.497Z,-0.66
2022-12-04T22:48:56.371Z,-0.66
2022-12-04T22:51:23.510Z,-0.63
2022-12-04T22:53:52.231Z,-0.62
2022-12-04T22:56:20.537Z,-0.60
2022-12-04T22:58:47.700Z,-0.60
2022-12-04T23:01:18.264Z,-0.67
2022-12-04T23:03:46.347Z,-0.61
2022-12-04T23:06:15.176Z,-0.63
2022-12-04T23:08:43.217Z,-0.65
2022-12-04T23:11:13.749Z,-0.65
2022-12-04T23:13:41.239Z,-0.61
2022-12-04T23:16:09.828Z,-0.60
2022-12-04T23:18:37.898Z,-0.63
2022-12-04T23:21:10.120Z,-0.63
2022-12-04T23:23:39.105Z,-0.66
2022-12-04T23:26:12.335Z,-0.66
2022-12-04T23:28:39.251Z,-0.66
2022-12-04T23:31:07.068Z,-0.64
2022-12-04T23:33:34.323Z,-0.63
2022-12-04T23:36:02.532Z,-0.62
2022-12-04T23:38:30.113Z,-0.60
2022-12-04T23:41:05.448Z,-0.58
2022-12-04T23:43:33.417Z,-0.60
2022-12-04T23:46:02.548Z,-0.61
2022-12-04T23:48:32.707Z,-0.57
2022-12-04T23:50:59.756Z,-0.58
2022-12-04T23:53:26.722Z,-0.58
2022-12-04T23:56:04.580Z,-0.54
2022-12-04T23:58:32.440Z,-0.54
